Time;durP1;ratioP1;P1;durP2;ratioP2;P2;SDS_P1;SDS_P2;PMS_P1;PMS_P2;Temp;Humidity;BMP_temperature;BMP_pressure;BME280_temperature;BME280_humidity;BME280_pressure;Samples;Min_cycle;Max_cycle;Signal;HPM_P1;HPM_P2
2023/12/06 00:01:49;;;;;;;162.43;51.47;;;-0.40;99.90;;;;;;5055037;28;20372;-37
2023/12/06 00:04:15;;;;;;;159.70;51.87;;;0.00;99.90;;;;;;5055979;28;20049;-38
2023/12/06 00:06:41;;;;;;;154.07;49.90;;;-0.20;99.90;;;;;;5053958;28;20080;-39
2023/12/06 00:09:07;;;;;;;165.52;52.03;;;0.20;99.90;;;;;;5055005;28;20052;-38
2023/12/06 00:11:32;;;;;;;155.30;51.13;;;0.60;99.90;;;;;;5055275;28;20055;-39
2023/12/06 00:13:58;;;;;;;153.23;51.00;;;-0.20;99.90;;;;;;5055527;28;20052;-41
2023/12/06 00:16:24;;;;;;;169.33;51.80;;;-0.40;99.90;;;;;;5054868;28;20128;-40
2023/12/06 00:18:50;;;;;;;177.40;52.80;;;-0.40;99.90;;;;;;5053912;28;20088;-41
2023/12/06 00:21:16;;;;;;;184.73;53.80;;;-0.40;99.90;;;;;;5053517;28;20049;-42
2023/12/06 00:23:41;;;;;;;168.80;52.40;;;-0.40;99.90;;;;;;5055585;28;20045;-43
2023/12/06 00:26:07;;;;;;;177.13;54.77;;;0.20;99.90;;;;;;5055046;28;20040;-42
2023/12/06 00:28:33;;;;;;;210.73;54.97;;;-0.50;99.90;;;;;;5020550;28;20152;-42
2023/12/06 00:30:59;;;;;;;188.87;53.17;;;0.60;99.90;;;;;;5054741;28;20464;-42
2023/12/06 00:33:25;;;;;;;200.20;52.97;;;0.20;99.90;;;;;;5036761;28;20049;-42
2023/12/06 00:35:51;;;;;;;158.80;51.63;;;-0.20;99.90;;;;;;5054419;28;20118;-41
2023/12/06 00:38:17;;;;;;;187.30;53.73;;;0.20;99.90;;;;;;5054505;28;20083;-41
2023/12/06 00:40:44;;;;;;;179.07;53.80;;;0.10;99.90;;;;;;5054443;28;20472;-41
2023/12/06 00:43:10;;;;;;;168.77;52.23;;;-0.20;99.90;;;;;;5054385;28;20084;-40
2023/12/06 00:45:36;;;;;;;172.05;52.30;;;0.30;99.90;;;;;;5054571;28;20479;-40
2023/12/06 00:48:02;;;;;;;175.27;53.57;;;-0.50;99.90;;;;;;5054306;28;20102;-39
2023/12/06 00:50:28;;;;;;;158.80;48.83;;;0.10;99.90;;;;;;5054013;28;20518;-38
2023/12/06 00:52:53;;;;;;;171.07;51.78;;;-0.20;99.90;;;;;;5054237;28;20045;-38
2023/12/06 00:55:19;;;;;;;165.00;50.87;;;-0.30;99.90;;;;;;5054091;28;20045;-37
2023/12/06 00:57:45;;;;;;;152.07;50.13;;;-0.30;99.90;;;;;;5054700;28;20344;-38
2023/12/06 01:00:12;;;;;;;159.63;46.30;;;-0.40;99.90;;;;;;5054088;28;20063;-39
2023/12/06 01:02:40;;;;;;;188.43;49.13;;;0.30;99.90;;;;;;5054327;28;20132;-36
2023/12/06 01:05:06;;;;;;;167.27;47.00;;;0.40;99.90;;;;;;5053957;28;20487;-36
2023/12/06 01:07:32;;;;;;;185.87;48.13;;;0.10;99.90;;;;;;5053980;28;20048;-37
2023/12/06 01:09:58;;;;;;;185.43;50.10;;;-0.60;99.90;;;;;;5052740;28;20041;-39
2023/12/06 01:12:24;;;;;;;163.87;46.60;;;-0.50;99.90;;;;;;5054741;28;20118;-35
2023/12/06 01:14:49;;;;;;;170.10;50.95;;;0.20;99.90;;;;;;5054399;28;20063;-37
2023/12/06 01:17:15;;;;;;;153.53;47.60;;;-0.50;99.90;;;;;;5053456;28;20063;-37
2023/12/06 01:19:41;;;;;;;138.15;46.47;;;0.30;99.90;;;;;;5052293;28;20159;-35
2023/12/06 01:22:07;;;;;;;132.07;44.28;;;0.40;99.90;;;;;;5053691;28;20439;-35
2023/12/06 01:24:32;;;;;;;149.88;47.92;;;-0.10;99.90;;;;;;5053706;28;20048;-35
2023/12/06 01:26:58;;;;;;;143.57;47.10;;;0.20;99.90;;;;;;5053700;28;20041;-35
2023/12/06 01:29:24;;;;;;;139.47;48.70;;;-0.50;99.90;;;;;;5052468;28;20048;-35
2023/12/06 01:31:50;;;;;;;115.50;44.10;;;-0.40;99.90;;;;;;5052207;28;20060;-34
2023/12/06 01:34:15;;;;;;;124.78;45.53;;;0.00;99.90;;;;;;5053604;28;20453;-34
2023/12/06 01:36:41;;;;;;;123.47;45.55;;;-0.30;99.90;;;;;;5053482;28;20045;-35
2023/12/06 01:39:08;;;;;;;102.80;44.28;;;-0.50;99.90;;;;;;5052607;28;20045;-35
2023/12/06 01:41:33;;;;;;;108.03;45.03;;;0.40;99.90;;;;;;5053573;28;20056;-34
2023/12/06 01:43:59;;;;;;;99.55;44.53;;;0.30;99.90;;;;;;5053470;28;20048;-34
2023/12/06 01:46:25;;;;;;;85.78;40.60;;;-0.10;99.90;;;;;;5054324;28;20048;-35
2023/12/06 01:48:52;;;;;;;95.68;43.78;;;0.40;99.90;;;;;;5053453;28;20395;-34
2023/12/06 01:51:19;;;;;;;85.32;42.15;;;0.30;99.90;;;;;;5053999;28;20364;-33
2023/12/06 01:53:45;;;;;;;69.70;38.45;;;0.20;99.90;;;;;;5053715;28;20372;-34
2023/12/06 01:56:12;;;;;;;75.53;40.03;;;0.50;99.90;;;;;;5053344;28;20045;-33
2023/12/06 01:58:38;;;;;;;81.18;37.80;;;0.50;99.90;;;;;;5053386;28;20057;-33
2023/12/06 02:01:05;;;;;;;70.25;37.13;;;0.70;99.90;;;;;;5052399;28;20106;-33
2023/12/06 02:03:35;;;;;;;67.23;38.40;;;0.50;99.90;;;;;;5054171;28;20057;-33
2023/12/06 02:06:02;;;;;;;66.07;36.67;;;0.00;99.90;;;;;;5053361;28;20052;-33
2023/12/06 02:08:33;;;;;;;68.25;36.85;;;0.50;99.90;;;;;;5053296;28;20041;-33
2023/12/06 02:10:59;;;;;;;69.03;36.55;;;0.30;99.90;;;;;;5052046;28;20064;-32
2023/12/06 02:13:26;;;;;;;69.03;36.22;;;0.20;99.90;;;;;;5052848;28;20048;-34
2023/12/06 02:15:52;;;;;;;65.93;37.30;;;0.30;99.90;;;;;;5053160;28;20098;-33
2023/12/06 02:18:19;;;;;;;62.78;35.17;;;-0.10;99.90;;;;;;5053758;28;20110;-33
2023/12/06 02:20:45;;;;;;;63.72;35.15;;;0.10;99.90;;;;;;5053385;28;20092;-34
2023/12/06 02:23:12;;;;;;;56.63;34.23;;;-0.10;99.90;;;;;;5053185;28;20105;-33
2023/12/06 02:25:38;;;;;;;51.40;29.60;;;0.30;99.90;;;;;;5053099;28;20045;-34
2023/12/06 02:28:04;;;;;;;57.58;33.05;;;0.40;99.90;;;;;;5053624;28;20056;-32
2023/12/06 02:30:30;;;;;;;58.83;34.20;;;0.60;99.90;;;;;;5054591;28;20063;-33
2023/12/06 02:32:55;;;;;;;53.90;32.57;;;0.20;99.90;;;;;;5056567;28;20048;-33
2023/12/06 02:35:33;;;;;;;52.07;31.80;;;0.70;99.90;;;;;;5056154;28;20045;-33
2023/12/06 02:38:01;;;;;;;52.08;30.80;;;0.00;99.90;;;;;;5057637;28;20067;-32
2023/12/06 02:40:30;;;;;;;50.67;32.33;;;0.30;99.90;;;;;;5055550;28;20051;-33
2023/12/06 02:42:57;;;;;;;53.92;32.33;;;0.00;99.90;;;;;;5056922;28;20049;-33
2023/12/06 02:45:23;;;;;;;52.05;31.13;;;0.20;99.90;;;;;;5057455;28;20040;-33
2023/12/06 02:47:49;;;;;;;47.73;29.70;;;0.00;99.90;;;;;;5056572;28;20380;-34
2023/12/06 02:50:15;;;;;;;45.28;27.73;;;0.20;99.90;;;;;;5056526;28;20052;-33
2023/12/06 02:52:40;;;;;;;48.40;31.83;;;0.00;99.90;;;;;;5038896;28;20049;-32
2023/12/06 02:55:06;;;;;;;50.28;30.40;;;0.00;99.90;;;;;;5056941;28;20045;-32
2023/12/06 02:57:32;;;;;;;50.35;30.63;;;0.70;99.90;;;;;;5056476;28;20175;-33
2023/12/06 02:59:58;;;;;;;50.65;30.70;;;0.20;99.90;;;;;;5055228;28;20068;-32
2023/12/06 03:02:24;;;;;;;48.00;30.42;;;0.00;99.90;;;;;;5056862;28;20459;-31
2023/12/06 03:04:49;;;;;;;47.63;29.17;;;-0.10;99.90;;;;;;5056264;28;20547;-32
2023/12/06 03:07:15;;;;;;;51.67;31.30;;;0.20;99.90;;;;;;5055092;28;20052;-32
2023/12/06 03:09:41;;;;;;;55.50;30.95;;;0.00;99.90;;;;;;5056181;28;20521;-32
2023/12/06 03:12:07;;;;;;;48.80;29.75;;;0.70;99.90;;;;;;5056132;28;20087;-32
2023/12/06 03:14:33;;;;;;;51.17;29.73;;;-0.10;99.90;;;;;;5056099;28;20044;-32
2023/12/06 03:16:59;;;;;;;50.75;28.88;;;0.60;99.90;;;;;;5056518;28;20037;-32
2023/12/06 03:19:25;;;;;;;47.35;28.52;;;0.20;99.90;;;;;;5055041;28;20041;-31
2023/12/06 03:21:50;;;;;;;45.23;28.47;;;0.70;99.90;;;;;;5055864;28;20056;-32
2023/12/06 03:24:16;;;;;;;44.73;29.20;;;0.60;99.90;;;;;;5055943;28;20132;-31
2023/12/06 03:26:42;;;;;;;49.00;29.40;;;0.80;99.90;;;;;;5054698;28;20033;-31
2023/12/06 03:29:08;;;;;;;47.88;28.70;;;-0.10;99.90;;;;;;5054823;28;20056;-30
2023/12/06 03:31:33;;;;;;;45.80;27.60;;;0.80;99.90;;;;;;5054123;28;20135;-31
2023/12/06 03:33:59;;;;;;;48.00;28.23;;;0.00;99.90;;;;;;5038272;28;20049;-30
2023/12/06 03:36:25;;;;;;;51.20;29.40;;;0.70;99.90;;;;;;5054233;28;20084;-31
2023/12/06 03:38:51;;;;;;;47.17;27.50;;;0.70;99.90;;;;;;5055396;28;20049;-31
2023/12/06 03:41:19;;;;;;;44.38;27.85;;;0.00;99.90;;;;;;5054740;28;20102;-30
2023/12/06 03:43:45;;;;;;;46.78;27.40;;;0.60;99.90;;;;;;5055518;28;20131;-30
2023/12/06 03:46:11;;;;;;;46.80;27.10;;;0.40;99.90;;;;;;5055550;28;20048;-31
2023/12/06 03:48:37;;;;;;;46.42;27.48;;;0.30;99.90;;;;;;5054277;28;20395;-30
2023/12/06 03:51:03;;;;;;;47.08;28.10;;;0.10;99.90;;;;;;5055381;28;20056;-30
2023/12/06 03:53:29;;;;;;;40.30;25.42;;;0.80;99.90;;;;;;5056198;28;20072;-31
2023/12/06 03:55:55;;;;;;;38.60;24.50;;;0.90;99.90;;;;;;5056095;28;20467;-30
2023/12/06 03:58:22;;;;;;;39.53;24.10;;;0.70;99.90;;;;;;5054168;28;20049;-30
2023/12/06 04:00:48;;;;;;;45.58;26.77;;;0.10;99.90;;;;;;5054094;28;20045;-30
2023/12/06 04:03:14;;;;;;;41.78;25.80;;;0.80;99.90;;;;;;5056032;28;20395;-30
2023/12/06 04:05:42;;;;;;;42.85;26.02;;;0.30;99.90;;;;;;5055188;28;20403;-30
2023/12/06 04:08:09;;;;;;;42.50;23.45;;;0.10;99.90;;;;;;5055918;28;20131;-30
2023/12/06 04:10:35;;;;;;;37.95;23.55;;;0.90;99.90;;;;;;5055030;28;20124;-30
2023/12/06 04:13:02;;;;;;;39.60;24.65;;;0.10;99.90;;;;;;5054996;28;20091;-30
2023/12/06 04:15:27;;;;;;;44.28;24.30;;;0.20;99.90;;;;;;5055178;28;20041;-30
2023/12/06 04:17:53;;;;;;;43.08;26.55;;;0.80;99.90;;;;;;5053780;28;20506;-30
2023/12/06 04:20:19;;;;;;;47.83;28.33;;;0.80;99.90;;;;;;5054884;28;20095;-31
2023/12/06 04:22:44;;;;;;;43.67;26.67;;;0.50;99.90;;;;;;5054728;28;20406;-30
2023/12/06 04:25:14;;;;;;;46.00;27.30;;;0.10;99.90;;;;;;5054730;28;20056;-30
2023/12/06 04:27:39;;;;;;;49.80;27.73;;;1.40;99.90;;;;;;5054769;28;20127;-29
2023/12/06 04:30:06;;;;;;;44.43;26.57;;;0.70;99.90;;;;;;5055077;28;20148;-30
2023/12/06 04:32:32;;;;;;;48.53;27.30;;;0.30;99.90;;;;;;5055245;28;20450;-30
2023/12/06 04:34:58;;;;;;;50.43;28.47;;;0.80;99.90;;;;;;5055385;28;20076;-29
2023/12/06 04:37:24;;;;;;;49.87;27.37;;;0.00;99.90;;;;;;5055265;28;20051;-29
2023/12/06 04:39:51;;;;;;;46.83;25.77;;;0.10;99.90;;;;;;5054744;28;20123;-30
2023/12/06 04:42:17;;;;;;;45.83;25.33;;;0.60;99.90;;;;;;5054475;28;20128;-29
2023/12/06 04:44:43;;;;;;;46.63;25.23;;;0.60;99.90;;;;;;5053221;28;20141;-30
2023/12/06 04:47:08;;;;;;;45.37;25.27;;;0.20;99.90;;;;;;5053395;28;20049;-30
2023/12/06 04:49:34;;;;;;;50.33;27.00;;;0.40;99.90;;;;;;5054565;28;20049;-29
2023/12/06 04:52:03;;;;;;;44.33;25.83;;;0.00;99.90;;;;;;5053105;28;20487;-29
2023/12/06 04:54:29;;;;;;;46.33;25.60;;;0.00;99.90;;;;;;5054161;28;20080;-30
2023/12/06 04:56:55;;;;;;;55.37;28.30;;;0.70;99.90;;;;;;5054663;28;20455;-29
2023/12/06 04:59:21;;;;;;;52.97;28.47;;;0.70;99.90;;;;;;5054476;28;20075;-29
2023/12/06 05:01:46;;;;;;;58.50;30.60;;;0.10;99.90;;;;;;5054099;28;20049;-29
2023/12/06 05:04:12;;;;;;;52.93;29.17;;;0.70;99.90;;;;;;5052871;28;20498;-29
2023/12/06 05:06:38;;;;;;;54.63;28.87;;;0.10;99.90;;;;;;5052904;28;20360;-29
2023/12/06 05:09:10;;;;;;;52.07;27.90;;;0.70;99.90;;;;;;5053857;28;20167;-29
2023/12/06 05:11:36;;;;;;;47.47;27.73;;;-0.10;99.90;;;;;;5054260;28;20037;-29
2023/12/06 05:14:02;;;;;;;52.27;28.53;;;0.20;99.90;;;;;;5053872;28;20132;-29
2023/12/06 05:16:28;;;;;;;47.47;27.05;;;0.30;99.90;;;;;;5053804;28;20127;-29
2023/12/06 05:18:54;;;;;;;43.07;24.27;;;0.10;99.90;;;;;;5053816;28;20102;-29
2023/12/06 05:21:20;;;;;;;46.60;25.50;;;0.40;99.90;;;;;;5053708;28;20045;-29
2023/12/06 05:23:46;;;;;;;40.63;24.07;;;0.80;99.90;;;;;;5053726;28;20049;-29
2023/12/06 05:26:12;;;;;;;45.70;24.63;;;0.00;99.90;;;;;;5054003;28;20037;-29
2023/12/06 05:28:37;;;;;;;47.27;25.87;;;0.10;99.90;;;;;;5054239;28;20394;-29
2023/12/06 05:31:03;;;;;;;49.80;27.37;;;0.80;99.90;;;;;;5053410;28;20060;-29
2023/12/06 05:33:29;;;;;;;52.77;29.03;;;0.20;99.90;;;;;;5052449;28;20049;-29
2023/12/06 05:35:58;;;;;;;47.57;26.10;;;-0.10;99.90;;;;;;5053562;28;20044;-29
2023/12/06 05:38:24;;;;;;;38.80;24.30;;;0.70;99.90;;;;;;5054105;28;20056;-29
2023/12/06 05:40:50;;;;;;;43.30;23.40;;;0.80;99.90;;;;;;5054371;28;20049;-29
2023/12/06 05:43:16;;;;;;;46.30;26.30;;;-0.10;99.90;;;;;;5053514;28;20046;-29
2023/12/06 05:45:42;;;;;;;52.03;27.20;;;0.60;99.90;;;;;;5053500;28;20051;-30
2023/12/06 05:48:08;;;;;;;46.20;25.87;;;0.70;99.90;;;;;;5053507;28;20045;-28
2023/12/06 05:50:34;;;;;;;45.37;26.33;;;0.00;99.90;;;;;;5053119;28;20138;-30
2023/12/06 05:53:00;;;;;;;35.93;23.13;;;0.90;99.90;;;;;;5053698;28;20490;-28
2023/12/06 05:55:26;;;;;;;37.00;23.60;;;0.40;99.90;;;;;;5053894;28;20051;-29
2023/12/06 05:57:52;;;;;;;39.57;24.57;;;0.20;99.90;;;;;;5053478;28;20131;-29
2023/12/06 06:00:18;;;;;;;35.93;23.23;;;1.20;99.90;;;;;;5053384;28;20060;-29
2023/12/06 06:02:45;;;;;;;32.43;20.77;;;1.00;99.90;;;;;;5053666;28;20044;-29
2023/12/06 06:05:11;;;;;;;33.00;20.83;;;0.30;99.90;;;;;;5054756;28;20479;-29
2023/12/06 06:07:37;;;;;;;28.17;20.57;;;0.30;99.90;;;;;;5057941;28;20102;-29
2023/12/06 06:10:04;;;;;;;30.07;19.53;;;0.90;99.90;;;;;;5057862;28;20044;-29
2023/12/06 06:12:30;;;;;;;33.57;20.30;;;1.20;99.90;;;;;;5057253;28;20049;-29
2023/12/06 06:14:56;;;;;;;28.67;19.90;;;0.70;99.90;;;;;;5057206;28;20526;-31
2023/12/06 06:17:22;;;;;;;26.03;17.13;;;0.70;99.90;;;;;;5057093;28;20132;-29
2023/12/06 06:19:48;;;;;;;24.97;17.33;;;0.70;99.90;;;;;;5057165;28;20052;-30
2023/12/06 06:22:14;;;;;;;23.47;18.13;;;0.90;99.90;;;;;;5057296;28;20049;-30
2023/12/06 06:24:40;;;;;;;20.02;15.90;;;0.90;99.90;;;;;;5057045;28;20045;-31
2023/12/06 06:27:06;;;;;;;24.57;16.90;;;1.00;99.90;;;;;;5057595;28;20087;-29
2023/12/06 06:29:32;;;;;;;23.83;17.77;;;1.70;99.90;;;;;;5057038;28;20120;-30
2023/12/06 06:31:57;;;;;;;21.40;16.17;;;1.10;99.90;;;;;;5056515;28;20056;-29
2023/12/06 06:34:23;;;;;;;27.97;18.07;;;0.60;99.90;;;;;;5055935;28;20053;-30
2023/12/06 06:36:49;;;;;;;27.37;17.30;;;1.00;99.90;;;;;;5055643;28;20140;-29
2023/12/06 06:39:15;;;;;;;27.63;17.43;;;1.20;99.90;;;;;;5056743;28;20479;-30
2023/12/06 06:41:40;;;;;;;24.93;16.80;;;0.70;99.90;;;;;;5056734;28;20102;-31
2023/12/06 06:44:06;;;;;;;25.87;17.43;;;1.30;99.90;;;;;;5056986;28;20052;-30
2023/12/06 06:46:32;;;;;;;20.77;16.00;;;0.60;99.90;;;;;;5056950;28;20040;-29
2023/12/06 06:48:58;;;;;;;20.83;15.83;;;0.70;99.90;;;;;;5056870;28;20048;-29
2023/12/06 06:51:35;;;;;;;28.13;16.90;;;1.10;99.90;;;;;;5056536;28;20480;-30
2023/12/06 06:54:06;;;;;;;23.37;15.63;;;0.80;99.90;;;;;;5039762;28;20089;-29
2023/12/06 06:56:32;;;;;;;23.37;16.23;;;0.60;99.90;;;;;;5056403;28;20475;-29
2023/12/06 06:58:58;;;;;;;25.00;16.43;;;0.50;99.90;;;;;;5056423;28;20045;-30
2023/12/06 07:01:24;;;;;;;25.57;16.47;;;0.60;99.90;;;;;;5057182;28;20045;-29
2023/12/06 07:03:50;;;;;;;26.50;16.67;;;0.70;99.90;;;;;;5056304;28;20124;-30
2023/12/06 07:06:16;;;;;;;25.65;17.10;;;0.50;99.90;;;;;;5056310;28;20041;-31
2023/12/06 07:08:42;;;;;;;26.55;16.45;;;0.60;99.90;;;;;;5056801;28;20444;-30
2023/12/06 07:11:08;;;;;;;24.20;17.15;;;0.50;99.90;;;;;;5056573;28;20051;-30
2023/12/06 07:13:37;;;;;;;22.63;16.60;;;0.80;99.90;;;;;;5076155;28;20056;-30
2023/12/06 07:16:04;;;;;;;24.60;17.15;;;1.00;99.90;;;;;;5075065;28;20127;-30
2023/12/06 07:18:31;;;;;;;21.85;16.10;;;1.00;99.90;;;;;;5074540;28;20052;-29
2023/12/06 07:20:58;;;;;;;25.23;17.05;;;1.10;99.90;;;;;;5076014;28;20131;-30
2023/12/06 07:23:24;;;;;;;23.23;16.55;;;1.10;99.90;;;;;;5075945;28;20067;-29
2023/12/06 07:25:50;;;;;;;27.92;17.70;;;1.30;99.90;;;;;;5075037;28;20491;-30
2023/12/06 07:28:16;;;;;;;24.05;16.67;;;0.90;99.90;;;;;;5076721;28;20044;-29
2023/12/06 07:30:42;;;;;;;26.20;17.38;;;0.70;99.90;;;;;;5075813;28;20462;-29
2023/12/06 07:33:08;;;;;;;25.75;16.70;;;1.20;99.90;;;;;;5074867;28;20040;-30
2023/12/06 07:35:35;;;;;;;26.23;17.23;;;1.00;99.90;;;;;;5076477;28;20045;-30
2023/12/06 07:38:01;;;;;;;27.63;17.30;;;0.80;99.90;;;;;;5075397;28;20402;-30
2023/12/06 07:40:27;;;;;;;26.42;16.92;;;1.10;99.90;;;;;;5075673;28;20044;-30
2023/12/06 07:42:53;;;;;;;24.95;17.10;;;1.20;99.90;;;;;;5075935;28;20058;-30
2023/12/06 07:45:19;;;;;;;22.40;15.82;;;1.20;99.90;;;;;;5075867;28;20405;-30
2023/12/06 07:47:45;;;;;;;20.75;14.25;;;0.70;99.90;;;;;;5075918;28;20156;-30
2023/12/06 07:50:12;;;;;;;25.95;14.40;;;1.30;99.90;;;;;;5075496;28;20045;-30
2023/12/06 07:52:39;;;;;;;20.63;14.50;;;1.30;99.90;;;;;;5075492;28;20064;-30
2023/12/06 07:55:06;;;;;;;20.85;14.18;;;1.40;99.90;;;;;;5075385;28;20055;-30
2023/12/06 07:57:35;;;;;;;26.98;15.43;;;0.90;99.90;;;;;;5075783;28;20102;-30
2023/12/06 08:00:02;;;;;;;20.02;12.45;;;1.20;99.90;;;;;;5075827;28;20145;-31
2023/12/06 08:02:28;;;;;;;21.10;14.27;;;1.00;99.90;;;;;;5075245;28;20044;-30
2023/12/06 08:04:54;;;;;;;23.33;14.77;;;1.40;99.90;;;;;;5062458;28;20055;-27
2023/12/06 08:07:22;;;;;;;22.42;13.85;;;1.60;99.90;;;;;;5075790;28;20040;-30
2023/12/06 08:09:49;;;;;;;22.98;15.15;;;1.40;99.90;;;;;;5073916;28;20048;-30
2023/12/06 08:12:15;;;;;;;20.73;15.27;;;1.00;99.90;;;;;;5058951;28;20048;-30
2023/12/06 08:14:43;;;;;;;19.33;14.18;;;1.10;99.90;;;;;;5062704;28;20447;-29
2023/12/06 08:17:09;;;;;;;19.17;13.98;;;1.30;99.90;;;;;;5059075;28;20502;-30
2023/12/06 08:19:35;;;;;;;22.95;14.90;;;1.50;99.90;;;;;;5054746;28;20098;-30
2023/12/06 08:22:01;;;;;;;22.58;14.57;;;1.00;99.90;;;;;;5055146;28;20049;-30
2023/12/06 08:24:26;;;;;;;22.02;15.95;;;1.00;99.90;;;;;;5056185;28;20048;-30
2023/12/06 08:26:52;;;;;;;27.60;18.55;;;1.10;99.90;;;;;;5054761;28;20041;-29
2023/12/06 08:29:18;;;;;;;22.92;14.90;;;1.30;99.90;;;;;;5053651;28;20128;-28
2023/12/06 08:31:43;;;;;;;21.15;14.13;;;2.00;99.90;;;;;;5072045;28;20060;-28
2023/12/06 08:34:09;;;;;;;21.60;14.13;;;1.80;99.90;;;;;;5072583;28;20048;-30
2023/12/06 08:36:35;;;;;;;19.50;13.32;;;1.50;99.90;;;;;;5074999;28;20479;-29
2023/12/06 08:39:01;;;;;;;19.25;12.48;;;1.60;99.90;;;;;;5074524;28;20113;-30
2023/12/06 08:41:27;;;;;;;22.00;12.77;;;1.80;99.90;;;;;;5067064;28;20040;-30
2023/12/06 08:43:52;;;;;;;16.75;12.02;;;1.50;99.90;;;;;;5054006;28;20055;-29
2023/12/06 08:46:20;;;;;;;15.60;11.15;;;1.60;99.90;;;;;;5055044;28;20049;-30
2023/12/06 08:48:46;;;;;;;14.73;12.05;;;1.50;99.90;;;;;;5061628;28;20044;-30
2023/12/06 08:51:12;;;;;;;16.20;11.25;;;1.50;99.90;;;;;;5061068;28;20547;-30
2023/12/06 08:53:38;;;;;;;16.23;10.32;;;1.40;99.90;;;;;;5057500;28;20045;-30
2023/12/06 08:56:04;;;;;;;14.05;11.30;;;1.50;99.90;;;;;;5057752;28;20062;-30
2023/12/06 08:58:30;;;;;;;15.68;11.82;;;1.60;99.90;;;;;;5063335;28;20052;-30
2023/12/06 09:00:55;;;;;;;16.45;11.25;;;1.70;99.90;;;;;;5054919;28;20053;-30
2023/12/06 09:03:21;;;;;;;22.63;14.85;;;1.20;99.90;;;;;;5063042;28;20072;-28
2023/12/06 09:05:48;;;;;;;21.17;13.60;;;1.50;99.90;;;;;;5062645;28;20120;-30
2023/12/06 09:08:15;;;;;;;19.17;13.80;;;1.10;99.90;;;;;;5061003;28;20041;-30
2023/12/06 09:10:41;;;;;;;20.88;14.32;;;1.50;99.90;;;;;;5073993;28;20051;-30
2023/12/06 09:13:07;;;;;;;19.52;13.50;;;1.30;99.90;;;;;;5073498;28;20444;-29
2023/12/06 09:15:32;;;;;;;19.75;13.18;;;1.60;99.90;;;;;;5073848;28;20052;-30
2023/12/06 09:17:59;;;;;;;17.02;12.85;;;1.20;99.90;;;;;;5073857;28;20040;-29
2023/12/06 09:20:24;;;;;;;21.50;13.55;;;1.10;99.90;;;;;;5073900;28;20083;-29
2023/12/06 09:22:50;;;;;;;16.08;11.57;;;1.70;99.90;;;;;;5072600;28;20076;-29
2023/12/06 09:25:16;;;;;;;20.10;13.73;;;1.60;99.90;;;;;;5073773;28;20086;-29
2023/12/06 09:27:42;;;;;;;17.25;12.65;;;1.70;99.90;;;;;;5074269;28;20380;-27
2023/12/06 09:30:11;;;;;;;17.05;12.02;;;1.60;99.90;;;;;;5072271;28;20067;-26
2023/12/06 09:32:38;;;;;;;20.13;14.07;;;2.00;99.90;;;;;;5073767;28;20060;-26
2023/12/06 09:35:07;;;;;;;18.70;12.65;;;2.00;99.90;;;;;;5072540;28;20082;-26
2023/12/06 09:37:32;;;;;;;19.40;12.15;;;2.10;99.90;;;;;;5072404;28;20109;-25
2023/12/06 09:39:58;;;;;;;21.00;13.38;;;2.10;99.90;;;;;;5073439;28;20044;-25
2023/12/06 09:42:27;;;;;;;22.55;11.85;;;2.10;99.90;;;;;;5073582;28;20045;-25
2023/12/06 09:44:55;;;;;;;19.50;13.55;;;1.70;99.90;;;;;;5074124;28;20048;-24
2023/12/06 09:47:23;;;;;;;15.63;10.63;;;1.80;99.90;;;;;;5073535;28;20044;-24
2023/12/06 09:49:49;;;;;;;12.80;9.50;;;1.70;99.90;;;;;;5073455;28;20052;-24
2023/12/06 09:52:21;;;;;;;15.20;9.93;;;1.90;99.90;;;;;;5072471;28;20049;-24
2023/12/06 09:54:51;;;;;;;12.10;8.75;;;1.90;99.90;;;;;;5074130;28;20063;-23
2023/12/06 09:57:17;;;;;;;14.88;9.65;;;1.70;99.90;;;;;;5073442;28;20056;-23
2023/12/06 09:59:43;;;;;;;14.18;10.55;;;1.80;99.90;;;;;;5072509;28;20371;-23
2023/12/06 10:02:09;;;;;;;9.68;8.10;;;1.80;99.90;;;;;;5072310;28;20060;-23
2023/12/06 10:04:35;;;;;;;13.90;8.77;;;1.60;99.90;;;;;;5073401;28;20044;-23
2023/12/06 10:07:01;;;;;;;16.05;9.45;;;1.80;99.90;;;;;;5073309;28;20072;-22
2023/12/06 10:09:27;;;;;;;17.75;8.27;;;1.50;99.90;;;;;;5072991;28;20506;-22
2023/12/06 10:12:07;;;;;;;14.00;8.70;;;1.80;99.90;;;;;;5073010;28;20048;-22
2023/12/06 10:14:33;;;;;;;12.38;7.85;;;1.80;99.90;;;;;;5072997;28;20494;-23
2023/12/06 10:16:58;;;;;;;13.38;8.75;;;1.90;99.90;;;;;;5073228;28;20086;-22
2023/12/06 10:19:25;;;;;;;12.77;9.68;;;1.80;99.90;;;;;;5074054;28;20094;-22
2023/12/06 10:21:52;;;;;;;14.73;9.45;;;2.00;99.90;;;;;;5071792;28;20051;-22
2023/12/06 10:24:17;;;;;;;15.85;10.48;;;2.00;99.90;;;;;;5072146;28;20513;-22
2023/12/06 10:26:43;;;;;;;12.45;9.95;;;1.80;99.90;;;;;;5073181;28;20041;-22
2023/12/06 10:29:09;;;;;;;14.57;10.23;;;1.80;99.90;;;;;;5073115;28;20058;-22
2023/12/06 10:31:42;;;;;;;16.08;9.65;;;2.10;99.90;;;;;;5073249;28;20143;-22
2023/12/06 10:34:09;;;;;;;14.38;9.32;;;1.80;99.90;;;;;;5074030;28;20450;-22
2023/12/06 10:36:39;;;;;;;12.23;8.90;;;2.20;99.90;;;;;;5073550;28;20055;-21
2023/12/06 10:39:11;;;;;;;12.65;9.50;;;2.00;99.90;;;;;;5058002;28;20040;-20
2023/12/06 10:41:41;;;;;;;16.05;10.00;;;2.10;99.90;;;;;;5072711;28;20123;-21
2023/12/06 10:44:09;;;;;;;13.25;8.88;;;2.00;99.90;;;;;;5072693;28;20052;-21
2023/12/06 10:46:36;;;;;;;14.38;9.63;;;2.10;99.90;;;;;;5072531;28;20123;-21
2023/12/06 10:49:03;;;;;;;12.40;9.55;;;2.20;99.90;;;;;;5073021;28;20074;-21
2023/12/06 10:51:30;;;;;;;12.10;9.15;;;2.00;99.90;;;;;;5057084;28;20210;-21
2023/12/06 10:53:59;;;;;;;13.75;9.35;;;2.10;99.90;;;;;;5075537;28;20127;-21
2023/12/06 10:56:27;;;;;;;10.85;8.75;;;2.30;99.90;;;;;;5076388;28;20044;-21
2023/12/06 10:58:55;;;;;;;14.65;8.82;;;2.20;99.90;;;;;;5076454;28;20503;-21
2023/12/06 11:01:22;;;;;;;11.23;8.98;;;2.10;99.90;;;;;;5075152;28;20407;-21
2023/12/06 11:03:50;;;;;;;10.43;8.20;;;2.30;99.90;;;;;;5076640;28;20041;-21
2023/12/06 11:06:36;;;;;;;12.20;8.15;;;2.10;99.90;;;;;;5076332;28;20055;-21
2023/12/06 11:09:26;;;;;;;11.32;7.95;;;2.20;99.90;;;;;;5076326;28;20050;-21
2023/12/06 11:12:14;;;;;;;13.20;8.98;;;2.20;99.90;;;;;;5075199;28;20056;-21
2023/12/06 11:15:05;;;;;;;12.82;8.45;;;2.20;99.90;;;;;;5076496;28;20075;-21
2023/12/06 11:17:37;;;;;;;12.88;8.40;;;2.40;99.90;;;;;;5076909;28;20063;-21
2023/12/06 11:20:03;;;;;;;12.65;8.30;;;2.30;99.90;;;;;;5075959;28;20052;-21
2023/12/06 11:22:29;;;;;;;12.95;9.00;;;2.30;99.90;;;;;;5074701;28;20056;-21
2023/12/06 11:24:56;;;;;;;10.77;8.18;;;2.20;99.90;;;;;;5075886;28;20135;-21
2023/12/06 11:27:22;;;;;;;15.55;8.50;;;2.30;99.90;;;;;;5075845;28;20041;-21
2023/12/06 11:29:52;;;;;;;16.80;10.20;;;2.60;99.90;;;;;;5076096;28;20048;-21
2023/12/06 11:32:17;;;;;;;13.95;8.55;;;2.30;99.90;;;;;;5075887;28;20133;-21
2023/12/06 11:34:43;;;;;;;12.20;8.85;;;2.10;99.90;;;;;;5075825;28;20086;-21
2023/12/06 11:37:16;;;;;;;13.82;9.63;;;2.20;99.90;;;;;;5075679;28;20044;-21
2023/12/06 11:39:48;;;;;;;16.35;9.38;;;2.10;99.90;;;;;;5075415;28;20478;-21
2023/12/06 11:42:18;;;;;;;12.05;8.65;;;2.00;99.90;;;;;;5075746;28;20041;-21
2023/12/06 11:44:55;;;;;;;18.90;9.88;;;2.30;99.90;;;;;;5075603;28;20047;-21
2023/12/06 11:47:25;;;;;;;10.55;8.95;;;2.20;99.90;;;;;;5075586;28;20057;-21
2023/12/06 11:49:52;;;;;;;15.02;8.85;;;2.10;99.90;;;;;;5075499;28;20052;-21
2023/12/06 11:52:18;;;;;;;17.25;8.70;;;2.30;99.90;;;;;;5075186;28;20487;-21
2023/12/06 11:54:49;;;;;;;10.52;7.78;;;2.30;99.90;;;;;;5075465;28;20052;-21
2023/12/06 11:57:15;;;;;;;11.88;7.82;;;2.30;99.90;;;;;;5074122;28;20051;-21
2023/12/06 11:59:41;;;;;;;14.90;8.10;;;2.30;99.90;;;;;;5075267;28;20102;-21
2023/12/06 12:02:08;;;;;;;13.55;8.25;;;2.30;99.90;;;;;;5074754;28;20051;-21
2023/12/06 12:04:37;;;;;;;10.15;6.50;;;2.30;99.90;;;;;;5074666;28;20445;-21
2023/12/06 12:07:03;;;;;;;12.98;6.65;;;2.30;99.90;;;;;;5074206;28;20543;-21
2023/12/06 12:09:30;;;;;;;11.75;6.85;;;2.30;99.90;;;;;;5075159;28;20140;-21
2023/12/06 12:11:56;;;;;;;11.63;6.53;;;2.30;99.90;;;;;;5075110;28;20110;-22
2023/12/06 12:14:22;;;;;;;9.25;7.05;;;2.30;99.90;;;;;;5075033;28;20051;-21
2023/12/06 12:16:49;;;;;;;9.93;6.70;;;2.30;99.90;;;;;;5075518;28;20032;-21
2023/12/06 12:19:15;;;;;;;15.38;7.90;;;2.40;99.90;;;;;;5074941;28;20516;-21
2023/12/06 12:21:41;;;;;;;12.07;7.00;;;2.30;99.90;;;;;;5073674;28;20048;-21
2023/12/06 12:24:07;;;;;;;11.07;6.88;;;2.30;99.90;;;;;;5074852;28;20128;-21
2023/12/06 12:26:33;;;;;;;13.18;6.47;;;2.40;99.90;;;;;;5074779;28;20040;-21
2023/12/06 12:28:59;;;;;;;7.75;5.50;;;2.30;99.90;;;;;;5074529;28;20048;-21
2023/12/06 12:31:33;;;;;;;8.38;5.03;;;2.30;99.90;;;;;;5074948;28;20057;-21
2023/12/06 12:33:59;;;;;;;11.02;5.32;;;2.40;99.90;;;;;;5075216;28;20063;-21